createdAt,value
2022-10-05T00:00:51.433Z,6.40
2022-10-05T00:02:55.770Z,6.20
2022-10-05T00:04:59.341Z,5.53
2022-10-05T00:07:10.762Z,6.37
2022-10-05T00:09:17.968Z,6.43
2022-10-05T00:11:21.285Z,5.10
2022-10-05T00:13:30.279Z,5.87
2022-10-05T00:15:37.068Z,6.27
2022-10-05T00:17:42.485Z,7.00
2022-10-05T00:19:46.558Z,5.53
2022-10-05T00:21:49.889Z,6.03
2022-10-05T00:23:55.000Z,5.90
2022-10-05T00:26:03.806Z,6.70
2022-10-05T00:28:16.905Z,7.20
2022-10-05T00:30:23.251Z,7.07
2022-10-05T00:32:28.149Z,6.67
2022-10-05T00:34:34.850Z,6.50
2022-10-05T00:36:39.376Z,7.10
2022-10-05T00:38:43.839Z,5.63
2022-10-05T00:41:01.725Z,5.80
2022-10-05T00:43:27.804Z,6.87
2022-10-05T00:45:36.411Z,5.60
2022-10-05T00:47:51.034Z,5.40
2022-10-05T00:50:18.995Z,5.90
2022-10-05T00:52:33.402Z,6.10
2022-10-05T00:54:43.421Z,5.63
2022-10-05T00:57:03.688Z,5.70
2022-10-05T00:59:20.262Z,7.57
2022-10-05T01:01:32.946Z,5.50
2022-10-05T01:03:49.087Z,6.90
2022-10-05T01:06:03.644Z,6.63
2022-10-05T01:08:19.895Z,5.67
2022-10-05T01:10:32.453Z,6.00
2022-10-05T01:12:48.424Z,6.20
2022-10-05T01:15:00.240Z,5.93
2022-10-05T01:17:09.545Z,7.10
2022-10-05T01:19:38.472Z,6.47
2022-10-05T01:21:50.216Z,6.93
2022-10-05T01:24:24.003Z,8.40
2022-10-05T01:26:50.534Z,6.40
2022-10-05T01:29:09.953Z,7.33
2022-10-05T01:31:21.757Z,7.80
2022-10-05T01:33:31.783Z,6.73
2022-10-05T01:35:45.542Z,6.87
2022-10-05T01:38:02.164Z,6.93
2022-10-05T01:40:11.089Z,6.50
2022-10-05T01:42:27.378Z,8.57
2022-10-05T01:44:38.671Z,10.53
2022-10-05T01:46:47.043Z,8.00
2022-10-05T01:49:04.470Z,8.60
2022-10-05T01:51:17.329Z,8.53
2022-10-05T01:53:35.200Z,8.37
2022-10-05T01:55:46.294Z,11.50
2022-10-05T01:58:01.794Z,9.20
2022-10-05T02:00:08.970Z,13.40
2022-10-05T02:02:23.518Z,22.43
2022-10-05T02:05:00.225Z,16.33
2022-10-05T02:06:59.291Z,13.37
2022-10-05T02:09:09.564Z,14.63
2022-10-05T02:11:15.113Z,12.73
2022-10-05T02:13:23.127Z,10.63
2022-10-05T02:15:33.735Z,10.30
2022-10-05T02:17:43.663Z,10.83
2022-10-05T02:19:52.911Z,9.40
2022-10-05T02:22:00.763Z,9.00
2022-10-05T02:24:10.036Z,10.00
2022-10-05T02:26:14.494Z,10.83
2022-10-05T02:28:24.605Z,9.40
2022-10-05T02:30:32.586Z,9.07
2022-10-05T02:32:41.135Z,7.77
2022-10-05T02:34:45.183Z,8.70
2022-10-05T02:37:15.676Z,8.13
2022-10-05T02:39:33.924Z,10.20
2022-10-05T02:41:49.245Z,9.97
2022-10-05T02:43:59.909Z,9.37
2022-10-05T02:46:16.921Z,8.40
2022-10-05T02:48:29.695Z,8.20
2022-10-05T02:50:42.262Z,7.07
2022-10-05T02:52:57.308Z,7.97
2022-10-05T02:55:10.451Z,7.30
2022-10-05T02:57:24.752Z,7.30
2022-10-05T02:59:36.673Z,6.67
2022-10-05T03:01:50.728Z,6.60
2022-10-05T03:04:03.483Z,7.07
2022-10-05T03:06:15.544Z,6.67
2022-10-05T03:08:25.896Z,6.80
2022-10-05T03:10:38.078Z,6.90
2022-10-05T03:12:50.783Z,6.67
2022-10-05T03:15:05.017Z,6.60
2022-10-05T03:17:16.988Z,5.80
2022-10-05T03:19:33.490Z,7.07
2022-10-05T03:21:49.626Z,6.00
2022-10-05T03:24:11.813Z,6.03
2022-10-05T03:26:33.347Z,6.80
2022-10-05T03:28:45.416Z,7.33
2022-10-05T03:30:56.178Z,6.63
2022-10-05T03:33:08.965Z,6.30
2022-10-05T03:35:19.180Z,6.40
2022-10-05T03:37:28.168Z,7.33
2022-10-05T03:39:38.099Z,7.73
2022-10-05T03:41:48.324Z,6.80
2022-10-05T03:44:22.775Z,6.83
2022-10-05T03:46:38.863Z,7.70
2022-10-05T03:48:53.502Z,8.00
2022-10-05T03:51:08.035Z,8.03
2022-10-05T03:53:19.304Z,7.00
2022-10-05T03:55:32.233Z,8.40
2022-10-05T03:57:39.872Z,8.67
2022-10-05T03:59:50.299Z,7.70
2022-10-05T04:01:58.787Z,8.50
2022-10-05T04:04:08.442Z,7.57
2022-10-05T04:06:16.580Z,8.07
2022-10-05T04:08:27.615Z,7.00
2022-10-05T04:10:39.343Z,7.50
2022-10-05T04:12:47.147Z,7.83
2022-10-05T04:14:55.930Z,7.50
2022-10-05T04:17:03.669Z,7.57
2022-10-05T04:19:16.026Z,7.20
2022-10-05T04:21:23.981Z,6.77
2022-10-05T04:23:40.090Z,6.87
2022-10-05T04:25:47.221Z,7.60
2022-10-05T04:27:55.946Z,7.23
2022-10-05T04:30:08.618Z,8.00
2022-10-05T04:32:30.466Z,6.77
2022-10-05T04:34:49.793Z,7.50
2022-10-05T04:37:00.949Z,7.70
2022-10-05T04:39:19.933Z,6.90
2022-10-05T04:41:40.287Z,8.10
2022-10-05T04:43:56.552Z,7.33
2022-10-05T04:46:14.650Z,7.23
2022-10-05T04:48:52.746Z,16.40
2022-10-05T04:51:13.116Z,9.23
2022-10-05T04:53:26.558Z,7.30
2022-10-05T04:55:36.981Z,6.73
2022-10-05T04:57:47.172Z,7.60
2022-10-05T05:00:05.695Z,7.00
2022-10-05T05:02:18.231Z,7.60
2022-10-05T05:04:52.028Z,6.90
2022-10-05T05:07:11.977Z,6.77
2022-10-05T05:09:40.619Z,7.53
2022-10-05T05:11:58.581Z,9.60
2022-10-05T05:14:30.371Z,7.33
2022-10-05T05:16:38.595Z,7.23
2022-10-05T05:18:58.674Z,6.93
2022-10-05T05:21:15.175Z,7.70
2022-10-05T05:23:31.552Z,7.20
2022-10-05T05:25:45.237Z,6.77
2022-10-05T05:27:53.160Z,6.53
2022-10-05T05:30:04.232Z,7.23
2022-10-05T05:32:22.168Z,6.60
2022-10-05T05:34:42.833Z,6.43
2022-10-05T05:36:56.607Z,6.50
2022-10-05T05:39:17.711Z,7.03
2022-10-05T05:41:28.463Z,7.40
2022-10-05T05:43:38.061Z,8.10
2022-10-05T05:45:43.444Z,7.37
2022-10-05T05:47:53.815Z,7.90
2022-10-05T05:50:13.767Z,7.10
2022-10-05T05:52:21.181Z,6.97
2022-10-05T05:54:31.660Z,7.80
2022-10-05T05:56:38.427Z,6.90
2022-10-05T05:58:49.806Z,6.70
2022-10-05T06:00:59.368Z,7.30
2022-10-05T06:03:10.610Z,7.17
2022-10-05T06:05:27.019Z,10.70
2022-10-05T06:07:32.643Z,6.90
2022-10-05T06:09:46.330Z,7.20
2022-10-05T06:12:13.614Z,6.90
2022-10-05T06:14:24.417Z,8.00
2022-10-05T06:16:36.022Z,7.00
2022-10-05T06:18:44.495Z,7.40
2022-10-05T06:20:58.782Z,8.10
2022-10-05T06:23:07.219Z,6.67
2022-10-05T06:25:22.474Z,7.10
2022-10-05T06:27:28.060Z,6.80
2022-10-05T06:29:55.295Z,8.30
2022-10-05T06:32:07.353Z,7.23
2022-10-05T06:34:29.018Z,7.67
2022-10-05T06:36:41.675Z,7.33
2022-10-05T06:39:06.218Z,6.97
2022-10-05T06:41:19.379Z,7.10
2022-10-05T06:43:40.373Z,6.90
2022-10-05T06:46:04.678Z,7.27
2022-10-05T06:48:41.873Z,6.97
2022-10-05T06:51:18.673Z,6.50
2022-10-05T06:53:44.954Z,6.83
2022-10-05T06:55:57.141Z,5.30
2022-10-05T06:58:26.361Z,6.97
2022-10-05T07:00:35.900Z,5.70
2022-10-05T07:02:46.190Z,6.13
2022-10-05T07:05:06.346Z,6.07
2022-10-05T07:07:18.482Z,5.50
2022-10-05T07:09:32.856Z,6.37
2022-10-05T07:11:58.396Z,6.43
2022-10-05T07:14:20.881Z,8.23
2022-10-05T07:16:36.183Z,5.73
2022-10-05T07:18:56.454Z,6.60
2022-10-05T07:21:05.122Z,7.20
2022-10-05T07:23:24.056Z,6.50
2022-10-05T07:25:33.870Z,5.90
2022-10-05T07:27:49.486Z,5.50
2022-10-05T07:30:02.341Z,6.87
2022-10-05T07:32:16.698Z,6.70
2022-10-05T07:34:32.094Z,5.47
2022-10-05T07:36:59.705Z,6.30
2022-10-05T07:39:10.110Z,6.30
2022-10-05T07:41:19.348Z,6.40
2022-10-05T07:43:57.520Z,6.13
2022-10-05T07:46:03.845Z,5.83
2022-10-05T07:48:16.252Z,5.27
2022-10-05T07:50:24.931Z,6.23
2022-10-05T07:52:35.215Z,6.10
2022-10-05T07:54:49.310Z,5.90
2022-10-05T07:56:59.944Z,6.20
2022-10-05T07:59:08.038Z,5.80
2022-10-05T08:01:19.256Z,5.60
2022-10-05T08:03:38.172Z,5.60
2022-10-05T08:05:43.485Z,6.30
2022-10-05T08:07:50.478Z,10.10
2022-10-05T08:09:59.499Z,6.37
2022-10-05T08:12:20.972Z,6.70
2022-10-05T08:14:33.665Z,6.60
2022-10-05T08:16:39.689Z,6.93
2022-10-05T08:18:51.341Z,7.93
2022-10-05T08:20:57.643Z,7.60
2022-10-05T08:23:05.543Z,8.53
2022-10-05T08:25:20.229Z,9.43
2022-10-05T08:27:27.720Z,9.87
2022-10-05T08:29:35.531Z,10.07
2022-10-05T08:31:44.094Z,9.60
2022-10-05T08:33:58.582Z,10.40
2022-10-05T08:36:08.492Z,10.17
2022-10-05T08:38:16.577Z,10.53
2022-10-05T08:40:53.428Z,9.53
2022-10-05T08:43:10.897Z,9.63
2022-10-05T08:46:02.211Z,10.10
2022-10-05T08:48:32.785Z,9.00
2022-10-05T08:51:03.551Z,10.20
2022-10-05T08:53:21.469Z,7.80
2022-10-05T08:55:35.810Z,8.97
2022-10-05T08:58:08.752Z,9.00
2022-10-05T09:00:17.484Z,9.03
2022-10-05T09:02:29.255Z,14.40
2022-10-05T09:04:59.829Z,10.67
2022-10-05T09:07:28.368Z,7.80
2022-10-05T09:10:19.746Z,7.90
2022-10-05T09:12:48.707Z,8.03
2022-10-05T09:15:24.856Z,7.70
2022-10-05T09:18:04.547Z,7.90
2022-10-05T09:20:19.265Z,7.30
2022-10-05T09:22:37.890Z,7.90
2022-10-05T09:24:56.599Z,6.53
2022-10-05T09:27:08.725Z,7.10
2022-10-05T09:29:51.361Z,6.73
2022-10-05T09:32:16.667Z,7.40
2022-10-05T09:34:44.619Z,6.27
2022-10-05T09:37:21.574Z,6.30
2022-10-05T09:40:07.669Z,7.00
2022-10-05T09:42:27.638Z,7.17
2022-10-05T09:45:01.914Z,8.10
2022-10-05T09:47:26.002Z,6.87
2022-10-05T09:50:08.862Z,5.83
2022-10-05T09:52:32.504Z,5.80
2022-10-05T09:55:18.859Z,4.70
2022-10-05T09:57:53.340Z,4.67
2022-10-05T10:00:17.566Z,4.60
2022-10-05T10:02:42.923Z,4.43
2022-10-05T10:05:11.820Z,4.10
2022-10-05T10:07:53.181Z,4.67
2022-10-05T10:10:34.340Z,4.53
2022-10-05T10:12:56.926Z,6.50
2022-10-05T10:15:38.938Z,5.23
2022-10-05T10:18:05.053Z,4.83
2022-10-05T10:20:26.791Z,5.73
2022-10-05T10:22:59.751Z,5.30
2022-10-05T10:25:21.273Z,5.30
2022-10-05T10:27:42.529Z,4.63
2022-10-05T10:30:10.237Z,4.30
2022-10-05T10:32:27.563Z,3.00
2022-10-05T10:34:52.455Z,2.90
2022-10-05T10:37:23.319Z,4.17
2022-10-05T10:39:40.679Z,3.17
2022-10-05T10:42:16.065Z,3.00
2022-10-05T10:44:58.828Z,3.80
2022-10-05T10:47:31.427Z,3.60
2022-10-05T10:49:54.211Z,3.50
2022-10-05T10:52:13.697Z,3.90
2022-10-05T10:54:55.646Z,4.07
2022-10-05T10:57:06.224Z,3.23
2022-10-05T10:59:56.464Z,3.50
2022-10-05T11:02:21.051Z,4.73
2022-10-05T11:04:59.246Z,4.30
2022-10-05T11:07:32.890Z,4.20
2022-10-05T11:09:57.297Z,6.00
2022-10-05T11:12:48.874Z,4.63
2022-10-05T11:15:07.799Z,4.00
2022-10-05T11:17:26.143Z,4.00
2022-10-05T11:20:02.863Z,3.63
2022-10-05T11:22:27.686Z,4.17
2022-10-05T11:24:57.299Z,4.30
2022-10-05T11:27:28.268Z,3.93
2022-10-05T11:30:04.127Z,6.07
2022-10-05T11:32:29.899Z,3.63
2022-10-05T11:35:02.064Z,4.13
2022-10-05T11:37:38.264Z,3.80
2022-10-05T11:39:46.049Z,3.87
2022-10-05T11:42:23.467Z,3.60
2022-10-05T11:44:59.806Z,3.60
2022-10-05T11:47:10.062Z,4.00
2022-10-05T11:49:27.854Z,3.27
2022-10-05T11:51:39.429Z,2.77
2022-10-05T11:53:48.647Z,4.57
2022-10-05T11:56:06.071Z,2.80
2022-10-05T11:58:16.942Z,2.40
2022-10-05T12:00:24.209Z,3.57
2022-10-05T12:02:53.195Z,2.50
2022-10-05T12:05:04.456Z,2.57
2022-10-05T12:07:16.040Z,2.27
2022-10-05T12:09:33.331Z,2.23
2022-10-05T12:11:58.474Z,2.10
2022-10-05T12:14:06.740Z,1.90
2022-10-05T12:16:18.195Z,1.90
2022-10-05T12:18:41.326Z,2.00
2022-10-05T12:20:50.359Z,1.87
2022-10-05T12:23:00.624Z,2.70
2022-10-05T12:25:19.138Z,1.73
2022-10-05T12:27:26.838Z,1.90
2022-10-05T12:29:39.434Z,1.50
2022-10-05T12:31:56.624Z,1.97
2022-10-05T12:34:09.617Z,1.57
2022-10-05T12:36:16.135Z,1.43
2022-10-05T12:38:28.417Z,1.60
2022-10-05T12:40:41.022Z,4.43
2022-10-05T12:42:51.202Z,1.80
2022-10-05T12:45:07.689Z,1.80
2022-10-05T12:47:23.752Z,1.70
2022-10-05T12:49:40.312Z,2.00
2022-10-05T12:51:49.930Z,1.60
2022-10-05T12:53:58.512Z,1.83
2022-10-05T12:56:05.752Z,1.77
2022-10-05T12:58:21.620Z,1.47
2022-10-05T13:00:25.092Z,1.80
2022-10-05T13:02:42.205Z,2.40
2022-10-05T13:04:52.362Z,1.67
2022-10-05T13:07:14.751Z,1.83
2022-10-05T13:09:24.217Z,1.60
2022-10-05T13:11:36.314Z,1.80
2022-10-05T13:13:48.959Z,2.50
2022-10-05T13:15:57.598Z,3.53
2022-10-05T13:18:18.150Z,3.00
2022-10-05T13:20:30.685Z,4.10
2022-10-05T13:22:41.055Z,2.40
2022-10-05T13:24:56.713Z,1.70
2022-10-05T13:27:04.127Z,2.13
2022-10-05T13:29:17.672Z,1.80
2022-10-05T13:31:25.584Z,1.80
2022-10-05T13:33:51.281Z,1.90
2022-10-05T13:36:04.445Z,1.77
2022-10-05T13:38:21.814Z,1.70
2022-10-05T13:40:33.375Z,1.60
2022-10-05T13:42:44.796Z,2.03
2022-10-05T13:44:52.075Z,1.70
2022-10-05T13:47:02.228Z,1.80
2022-10-05T13:49:21.167Z,2.23
2022-10-05T13:51:29.422Z,1.83
2022-10-05T13:53:38.882Z,1.73
2022-10-05T13:55:47.581Z,1.80
2022-10-05T13:57:58.781Z,2.07
2022-10-05T14:00:07.086Z,1.43
2022-10-05T14:02:21.692Z,1.97
2022-10-05T14:04:29.639Z,2.50
2022-10-05T14:06:36.374Z,1.90
2022-10-05T14:08:49.591Z,1.73
2022-10-05T14:10:53.763Z,1.53
2022-10-05T14:12:57.219Z,2.10
2022-10-05T14:15:22.207Z,3.40
2022-10-05T14:17:40.794Z,2.03
2022-10-05T14:19:50.951Z,1.93
2022-10-05T14:22:01.037Z,2.70
2022-10-05T14:24:42.504Z,1.50
2022-10-05T14:26:52.463Z,2.17
2022-10-05T14:29:01.985Z,1.87
2022-10-05T14:31:16.408Z,4.00
2022-10-05T14:33:21.969Z,2.90
2022-10-05T14:35:30.338Z,1.80
2022-10-05T14:37:44.227Z,1.90
2022-10-05T14:39:49.827Z,2.00
2022-10-05T14:41:53.181Z,1.50
2022-10-05T14:44:03.082Z,2.10
2022-10-05T14:46:25.407Z,1.83
2022-10-05T14:48:42.235Z,2.00
2022-10-05T14:50:59.452Z,2.50
2022-10-05T14:53:17.462Z,2.53
2022-10-05T14:55:49.789Z,1.63
2022-10-05T14:58:06.565Z,1.80
2022-10-05T15:00:14.352Z,1.83
2022-10-05T15:02:32.775Z,1.90
2022-10-05T15:04:45.302Z,1.87
2022-10-05T15:07:00.645Z,1.90
2022-10-05T15:09:45.533Z,2.47
2022-10-05T15:11:51.922Z,1.77
2022-10-05T15:13:57.404Z,1.83
2022-10-05T15:16:06.218Z,1.70
2022-10-05T15:18:19.579Z,1.80
2022-10-05T15:20:26.266Z,2.37
2022-10-05T15:22:41.232Z,1.90
2022-10-05T15:24:53.155Z,2.27
2022-10-05T15:26:59.525Z,2.03
2022-10-05T15:29:11.206Z,2.13
2022-10-05T15:31:23.608Z,2.53
2022-10-05T15:33:35.502Z,1.60
2022-10-05T15:35:50.127Z,1.80
2022-10-05T15:37:59.701Z,2.30
2022-10-05T15:40:07.762Z,2.10
2022-10-05T15:42:15.172Z,1.90
2022-10-05T15:44:27.673Z,1.70
2022-10-05T15:46:35.715Z,1.70
2022-10-05T15:48:49.443Z,2.27
2022-10-05T15:51:01.277Z,1.70
2022-10-05T15:53:14.788Z,1.90
2022-10-05T15:55:43.222Z,1.53
2022-10-05T15:57:53.275Z,2.00
2022-10-05T16:00:04.136Z,1.70
2022-10-05T16:02:19.796Z,2.13
2022-10-05T16:04:30.626Z,1.67
2022-10-05T16:06:57.841Z,2.00
2022-10-05T16:09:14.229Z,2.13
2022-10-05T16:11:31.022Z,1.80
2022-10-05T16:13:45.390Z,2.10
2022-10-05T16:15:57.429Z,2.00
2022-10-05T16:18:32.218Z,2.10
2022-10-05T16:20:47.159Z,2.07
2022-10-05T16:22:59.349Z,1.90
2022-10-05T16:25:22.372Z,2.40
2022-10-05T16:27:38.911Z,1.80
2022-10-05T16:29:51.601Z,1.80
2022-10-05T16:31:58.572Z,1.97
2022-10-05T16:34:09.406Z,4.10
2022-10-05T16:36:24.739Z,3.50
2022-10-05T16:38:35.305Z,2.50
2022-10-05T16:40:46.199Z,2.33
2022-10-05T16:42:59.621Z,1.70
2022-10-05T16:45:14.925Z,2.23
2022-10-05T16:47:33.480Z,5.53
2022-10-05T16:49:48.303Z,3.10
2022-10-05T16:51:58.995Z,2.90
2022-10-05T16:54:14.079Z,2.20
2022-10-05T16:56:21.825Z,2.10
2022-10-05T16:58:29.676Z,2.87
2022-10-05T17:00:46.487Z,1.90
2022-10-05T17:03:05.788Z,2.23
2022-10-05T17:05:36.531Z,2.20
2022-10-05T17:07:57.031Z,2.30
2022-10-05T17:10:29.244Z,1.90
2022-10-05T17:12:47.801Z,1.80
2022-10-05T17:15:09.808Z,2.00
2022-10-05T17:17:39.365Z,2.20
2022-10-05T17:19:59.976Z,2.90
2022-10-05T17:22:12.449Z,2.27
2022-10-05T17:24:28.934Z,2.40
2022-10-05T17:26:56.462Z,2.17
2022-10-05T17:29:13.679Z,2.17
2022-10-05T17:31:18.774Z,2.17
2022-10-05T17:33:25.832Z,2.53
2022-10-05T17:35:50.703Z,2.30
2022-10-05T17:38:14.309Z,3.53
2022-10-05T17:40:33.785Z,2.67
2022-10-05T17:42:48.669Z,2.40
2022-10-05T17:44:55.031Z,2.10
2022-10-05T17:47:00.105Z,2.63
2022-10-05T17:49:19.562Z,2.20
2022-10-05T17:52:18.499Z,2.57
2022-10-05T17:54:41.435Z,2.67
2022-10-05T17:57:20.288Z,2.93
2022-10-05T17:59:39.726Z,2.70
2022-10-05T18:02:05.001Z,2.50
2022-10-05T18:04:39.220Z,2.40
2022-10-05T18:06:48.048Z,2.67
2022-10-05T18:08:51.960Z,2.50
2022-10-05T18:11:17.079Z,2.80
2022-10-05T18:13:35.635Z,2.50
2022-10-05T18:15:50.163Z,2.50
2022-10-05T18:17:58.041Z,2.57
2022-10-05T18:20:31.378Z,2.83
2022-10-05T18:22:35.020Z,3.27
2022-10-05T18:25:03.772Z,2.50
2022-10-05T18:27:31.798Z,2.43
2022-10-05T18:30:05.494Z,2.73
2022-10-05T18:32:22.271Z,2.50
2022-10-05T18:34:35.890Z,2.60
2022-10-05T18:36:54.555Z,2.60
2022-10-05T18:39:12.545Z,2.67
2022-10-05T18:41:23.615Z,5.33
2022-10-05T18:43:35.643Z,2.63
2022-10-05T18:45:50.295Z,2.70
2022-10-05T18:48:12.130Z,2.83
2022-10-05T18:50:26.796Z,2.90
2022-10-05T18:52:43.929Z,2.40
2022-10-05T18:54:58.438Z,2.40
2022-10-05T18:57:34.270Z,2.43
2022-10-05T18:59:46.391Z,3.00
2022-10-05T19:01:59.446Z,2.13
2022-10-05T19:04:16.909Z,2.50
2022-10-05T19:06:27.367Z,2.17
2022-10-05T19:08:40.186Z,2.90
2022-10-05T19:10:46.673Z,4.10
2022-10-05T19:13:12.007Z,2.87
2022-10-05T19:15:25.347Z,3.00
2022-10-05T19:17:45.618Z,2.70
2022-10-05T19:20:04.228Z,2.73
2022-10-05T19:22:19.693Z,1.63
2022-10-05T19:24:41.656Z,2.30
2022-10-05T19:26:57.347Z,2.07
2022-10-05T19:29:11.555Z,2.10
2022-10-05T19:31:30.574Z,1.90
2022-10-05T19:33:47.295Z,2.67
2022-10-05T19:36:04.070Z,2.53
2022-10-05T19:38:21.102Z,2.30
2022-10-05T19:40:31.516Z,2.67
2022-10-05T19:42:54.182Z,2.20
2022-10-05T19:45:07.043Z,2.10
2022-10-05T19:47:18.568Z,2.10
2022-10-05T19:49:44.662Z,2.00
2022-10-05T19:51:49.992Z,2.07
2022-10-05T19:53:56.937Z,2.40
2022-10-05T19:56:17.007Z,2.10
2022-10-05T19:58:22.836Z,2.20
2022-10-05T20:00:31.225Z,1.83
2022-10-05T20:02:37.518Z,1.60
2022-10-05T20:04:47.478Z,2.77
2022-10-05T20:06:51.161Z,7.30
2022-10-05T20:08:59.827Z,3.23
2022-10-05T20:11:12.392Z,2.30
2022-10-05T20:13:23.368Z,2.37
2022-10-05T20:15:45.976Z,2.00
2022-10-05T20:18:07.740Z,2.13
2022-10-05T20:20:32.098Z,2.13
2022-10-05T20:22:37.977Z,2.83
2022-10-05T20:24:53.438Z,1.77
2022-10-05T20:27:05.541Z,1.50
2022-10-05T20:29:09.866Z,2.40
2022-10-05T20:31:14.453Z,1.60
2022-10-05T20:33:17.879Z,1.83
2022-10-05T20:35:22.962Z,1.97
2022-10-05T20:37:26.821Z,2.13
2022-10-05T20:39:31.246Z,2.03
2022-10-05T20:41:36.410Z,1.90
2022-10-05T20:43:40.440Z,1.73
2022-10-05T20:45:44.226Z,2.03
2022-10-05T20:47:47.737Z,1.83
2022-10-05T20:49:53.166Z,1.63
2022-10-05T20:51:56.539Z,1.60
2022-10-05T20:53:59.844Z,1.73
2022-10-05T20:56:04.585Z,2.00
2022-10-05T20:58:11.034Z,1.50
2022-10-05T21:00:15.258Z,2.33
2022-10-05T21:02:19.876Z,1.53
2022-10-05T21:04:25.475Z,1.70
2022-10-05T21:06:29.439Z,1.40
2022-10-05T21:08:32.776Z,2.23
2022-10-05T21:10:36.882Z,1.67
2022-10-05T21:12:41.051Z,1.50
2022-10-05T21:14:46.955Z,1.73
2022-10-05T21:16:50.322Z,1.97
2022-10-05T21:18:53.689Z,2.17
2022-10-05T21:21:01.987Z,1.53
2022-10-05T21:23:05.569Z,1.90
2022-10-05T21:25:09.866Z,1.70
2022-10-05T21:27:13.197Z,2.50
2022-10-05T21:29:16.626Z,1.90
2022-10-05T21:31:21.581Z,1.70
2022-10-05T21:33:25.308Z,2.00
2022-10-05T21:35:28.943Z,1.67
2022-10-05T21:37:32.276Z,2.33
2022-10-05T21:39:36.511Z,1.90
2022-10-05T21:41:39.816Z,1.67
2022-10-05T21:43:43.495Z,1.70
2022-10-05T21:45:48.016Z,2.23
2022-10-05T21:47:52.895Z,2.20
2022-10-05T21:49:56.401Z,1.70
2022-10-05T21:52:01.933Z,2.03
2022-10-05T21:54:10.196Z,2.00
2022-10-05T21:56:16.778Z,1.90
2022-10-05T21:58:22.646Z,2.50
2022-10-05T22:00:25.994Z,3.70
2022-10-05T22:02:29.320Z,2.00
2022-10-05T22:04:34.072Z,2.50
2022-10-05T22:06:37.681Z,2.33
2022-10-05T22:08:41.641Z,2.20
2022-10-05T22:10:44.962Z,2.20
2022-10-05T22:12:48.372Z,1.73
2022-10-05T22:14:51.702Z,2.40
2022-10-05T22:16:55.298Z,1.90
2022-10-05T22:18:59.183Z,1.40
2022-10-05T22:21:05.028Z,1.70
2022-10-05T22:23:08.393Z,1.00
2022-10-05T22:25:11.771Z,0.87
2022-10-05T22:27:15.738Z,1.17
2022-10-05T22:29:19.714Z,0.97
2022-10-05T22:31:23.179Z,1.00
2022-10-05T22:33:26.482Z,1.03
2022-10-05T22:35:30.093Z,0.90
2022-10-05T22:37:38.180Z,1.43
2022-10-05T22:39:41.888Z,1.77
2022-10-05T22:41:45.647Z,1.50
2022-10-05T22:43:50.726Z,1.20
2022-10-05T22:45:54.382Z,1.00
2022-10-05T22:47:57.915Z,1.13
2022-10-05T22:50:01.241Z,0.97
2022-10-05T22:52:04.766Z,0.90
2022-10-05T22:54:09.445Z,0.60
2022-10-05T22:56:14.368Z,1.00
2022-10-05T22:58:17.764Z,1.47
2022-10-05T23:00:27.614Z,0.70
2022-10-05T23:02:37.178Z,1.03
2022-10-05T23:04:40.596Z,0.97
2022-10-05T23:06:43.919Z,1.00
2022-10-05T23:08:47.859Z,1.10
2022-10-05T23:10:52.661Z,1.30
2022-10-05T23:13:00.738Z,1.00
2022-10-05T23:15:05.776Z,1.10
2022-10-05T23:17:09.061Z,1.10
2022-10-05T23:19:12.905Z,1.10
2022-10-05T23:21:16.959Z,1.30
2022-10-05T23:23:20.509Z,1.80
2022-10-05T23:25:23.784Z,1.10
2022-10-05T23:27:28.720Z,0.93
2022-10-05T23:29:31.970Z,1.23
2022-10-05T23:31:36.869Z,1.00
2022-10-05T23:33:40.239Z,1.10
2022-10-05T23:35:43.544Z,1.30
2022-10-05T23:37:46.816Z,1.20
2022-10-05T23:39:50.106Z,0.77
2022-10-05T23:41:53.492Z,1.10
2022-10-05T23:43:58.195Z,1.10
2022-10-05T23:46:01.911Z,1.00
2022-10-05T23:48:05.387Z,1.30
2022-10-05T23:50:10.339Z,0.90
2022-10-05T23:52:15.554Z,0.90
2022-10-05T23:54:18.867Z,0.90
2022-10-05T23:56:22.197Z,0.90
2022-10-05T23:58:26.080Z,0.80
